createdAt,value
2022-08-05T00:00:16.454Z,1006.04
2022-08-05T00:01:20.986Z,1006.06
2022-08-05T00:02:15.957Z,1006.00
2022-08-05T00:03:15.531Z,1005.96
2022-08-05T00:04:14.882Z,1005.92
2022-08-05T00:05:27.151Z,1005.91
2022-08-05T00:06:29.320Z,1005.88
2022-08-05T00:07:59.425Z,1005.88
2022-08-05T00:08:32.901Z,1005.83
2022-08-05T00:09:19.737Z,1005.78
2022-08-05T00:10:14.799Z,1005.84
2022-08-05T00:11:20.505Z,1005.87
2022-08-05T00:12:15.914Z,1005.84
2022-08-05T00:13:18.533Z,1005.86
2022-08-05T00:14:17.066Z,1005.86
2022-08-05T00:15:56.384Z,1005.82
2022-08-05T00:16:15.776Z,1005.76
2022-08-05T00:17:18.781Z,1005.76
2022-08-05T00:18:21.706Z,1005.80
2022-08-05T00:19:15.716Z,1005.74
2022-08-05T00:20:14.735Z,1005.71
2022-08-05T00:21:15.699Z,1005.70
2022-08-05T00:22:14.682Z,1005.71
2022-08-05T00:23:14.667Z,1005.70
2022-08-05T00:24:16.338Z,1005.67
2022-08-05T00:25:14.660Z,1005.59
2022-08-05T00:26:14.647Z,1005.54
2022-08-05T00:27:16.874Z,1005.53
2022-08-05T00:28:14.603Z,1005.48
2022-08-05T00:29:14.611Z,1005.48
2022-08-05T00:30:14.585Z,1005.49
2022-08-05T00:31:14.583Z,1005.46
2022-08-05T00:32:15.377Z,1005.50
2022-08-05T00:34:41.985Z,1005.65
2022-08-05T00:34:54.613Z,1005.67
2022-08-05T00:35:15.545Z,1005.69
2022-08-05T00:36:16.400Z,1005.65
2022-08-05T00:37:15.540Z,1005.62
2022-08-05T00:38:14.494Z,1005.50
2022-08-05T00:39:14.528Z,1005.40
2022-08-05T00:40:14.537Z,1005.41
2022-08-05T00:41:14.508Z,1005.42
2022-08-05T00:42:31.675Z,1005.47
2022-08-05T00:43:15.715Z,1005.53
2022-08-05T00:44:14.496Z,1005.55
2022-08-05T00:45:14.613Z,1005.61
2022-08-05T00:46:14.619Z,1005.67
2022-08-05T00:47:14.459Z,1005.69
2022-08-05T00:48:14.385Z,1005.66
2022-08-05T00:49:14.677Z,1005.68
2022-08-05T00:50:14.423Z,1005.72
2022-08-05T00:51:50.978Z,1005.70
2022-08-05T00:52:15.413Z,1005.70
2022-08-05T00:53:45.465Z,1005.71
2022-08-05T00:54:15.420Z,1005.65
2022-08-05T00:55:14.939Z,1005.54
2022-08-05T00:56:14.450Z,1005.42
2022-08-05T00:57:15.724Z,1005.25
2022-08-05T00:58:15.622Z,1005.18
2022-08-05T00:59:14.370Z,1005.18
2022-08-05T01:00:14.541Z,1005.22
2022-08-05T01:01:15.064Z,1005.24
2022-08-05T01:02:14.301Z,1005.28
2022-08-05T01:03:22.750Z,1005.29
2022-08-05T01:04:15.827Z,1005.26
2022-08-05T01:05:14.325Z,1005.23
2022-08-05T01:06:15.350Z,1005.32
2022-08-05T01:07:14.331Z,1005.43
2022-08-05T01:08:41.929Z,1005.47
2022-08-05T01:09:15.252Z,1005.51
2022-08-05T01:10:14.185Z,1005.26
2022-08-05T01:11:14.236Z,1005.11
2022-08-05T01:12:18.477Z,1004.91
2022-08-05T01:13:19.444Z,1004.79
2022-08-05T01:14:16.917Z,1004.74
2022-08-05T01:15:35.421Z,1004.63
2022-08-05T01:16:21.109Z,1004.56
2022-08-05T01:17:15.772Z,1004.40
2022-08-05T01:18:14.134Z,1004.20
2022-08-05T01:19:14.483Z,1003.99
2022-08-05T01:21:38.098Z,1003.91
2022-08-05T01:22:52.080Z,1004.06
2022-08-05T01:23:36.276Z,1004.20
2022-08-05T01:24:36.206Z,1004.25
2022-08-05T01:25:40.690Z,1004.23
2022-08-05T01:26:37.263Z,1004.30
2022-08-05T01:27:37.197Z,1004.35
2022-08-05T01:28:39.429Z,1004.37
2022-08-05T01:29:36.314Z,1004.40
2022-08-05T01:30:36.269Z,1004.40
2022-08-05T01:31:42.757Z,1004.46
2022-08-05T01:32:37.309Z,1004.46
2022-08-05T01:33:37.356Z,1004.41
2022-08-05T01:34:36.173Z,1004.41
2022-08-05T01:35:51.030Z,1004.42
2022-08-05T01:36:37.097Z,1004.39
2022-08-05T01:37:37.206Z,1004.40
2022-08-05T01:38:37.253Z,1004.38
2022-08-05T01:39:47.023Z,1004.36
2022-08-05T01:40:37.981Z,1004.35
2022-08-05T01:41:36.260Z,1004.35
2022-08-05T01:42:37.009Z,1004.34
2022-08-05T01:43:36.200Z,1004.35
2022-08-05T01:44:36.020Z,1004.35
2022-08-05T01:45:43.155Z,1004.38
2022-08-05T01:46:41.942Z,1004.45
2022-08-05T01:47:39.596Z,1004.44
2022-08-05T01:48:36.966Z,1004.44
2022-08-05T01:50:02.020Z,1004.46
2022-08-05T01:50:36.882Z,1004.49
2022-08-05T01:51:35.936Z,1004.51
2022-08-05T01:52:36.098Z,1004.49
2022-08-05T01:53:54.621Z,1004.52
2022-08-05T01:55:50.057Z,1004.57
2022-08-05T01:58:09.943Z,1004.53
2022-08-05T01:58:12.772Z,1004.54
2022-08-05T01:58:51.422Z,1004.53
2022-08-05T01:59:49.958Z,1004.52
2022-08-05T02:00:49.948Z,1004.53
2022-08-05T02:01:50.008Z,1004.53
2022-08-05T02:02:53.693Z,1004.58
2022-08-05T02:03:51.101Z,1004.57
2022-08-05T02:04:50.235Z,1004.60
2022-08-05T02:05:49.912Z,1004.69
2022-08-05T02:06:50.025Z,1004.70
2022-08-05T02:08:01.118Z,1004.72
2022-08-05T02:08:58.193Z,1004.75
2022-08-05T02:09:50.975Z,1004.80
2022-08-05T02:10:49.885Z,1004.83
2022-08-05T02:11:52.320Z,1004.79
2022-08-05T02:12:51.048Z,1004.85
2022-08-05T02:13:53.971Z,1004.86
2022-08-05T02:14:50.098Z,1004.86
2022-08-05T02:15:50.323Z,1004.89
2022-08-05T02:16:52.795Z,1004.91
2022-08-05T02:18:30.964Z,1004.95
2022-08-05T02:18:51.054Z,1004.90
2022-08-05T02:19:50.002Z,1004.95
2022-08-05T02:20:50.901Z,1004.94
2022-08-05T02:21:50.644Z,1004.98
2022-08-05T02:22:49.807Z,1005.02
2022-08-05T02:23:50.122Z,1005.07
2022-08-05T02:24:51.393Z,1005.12
2022-08-05T02:25:50.639Z,1005.12
2022-08-05T02:26:53.996Z,1005.16
2022-08-05T02:29:04.031Z,1005.18
2022-08-05T02:30:03.793Z,1005.23
2022-08-05T02:31:04.126Z,1005.27
2022-08-05T02:32:04.716Z,1005.26
2022-08-05T02:33:03.997Z,1005.26
2022-08-05T02:34:03.816Z,1005.21
2022-08-05T02:35:13.375Z,1005.20
2022-08-05T02:36:04.779Z,1005.15
2022-08-05T02:37:04.342Z,1005.16
2022-08-05T02:38:03.956Z,1005.12
2022-08-05T02:39:03.882Z,1005.14
2022-08-05T02:40:04.881Z,1005.10
2022-08-05T02:41:06.389Z,1005.08
2022-08-05T02:42:04.724Z,1005.04
2022-08-05T02:43:03.742Z,1004.99
2022-08-05T02:44:11.192Z,1004.96
2022-08-05T02:45:05.482Z,1004.96
2022-08-05T02:46:04.070Z,1004.92
2022-08-05T02:47:04.142Z,1004.88
2022-08-05T02:48:11.471Z,1004.85
2022-08-05T02:49:04.656Z,1004.85
2022-08-05T02:50:03.644Z,1004.86
2022-08-05T02:51:04.487Z,1004.85
2022-08-05T02:52:04.864Z,1004.87
2022-08-05T02:53:03.713Z,1004.89
2022-08-05T02:54:04.662Z,1004.88
2022-08-05T02:55:05.484Z,1004.92
2022-08-05T02:58:10.336Z,1005.00
2022-08-05T02:58:26.742Z,1004.95
2022-08-05T02:59:27.068Z,1004.93
2022-08-05T03:00:25.341Z,1004.85
2022-08-05T03:01:24.238Z,1004.78
2022-08-05T03:02:24.131Z,1004.82
2022-08-05T03:03:24.083Z,1004.89
2022-08-05T03:04:24.083Z,1004.89
2022-08-05T03:06:54.182Z,1004.90
2022-08-05T03:06:56.733Z,1004.95
2022-08-05T03:08:00.893Z,1004.95
2022-08-05T03:08:29.575Z,1004.97
2022-08-05T03:09:36.153Z,1005.00
2022-08-05T03:10:25.253Z,1004.99
2022-08-05T03:11:56.678Z,1004.98
2022-08-05T03:12:24.984Z,1004.93
2022-08-05T03:13:27.614Z,1004.92
2022-08-05T03:14:24.987Z,1004.94
2022-08-05T03:15:24.437Z,1004.93
2022-08-05T03:16:23.941Z,1004.91
2022-08-05T03:17:24.147Z,1004.96
2022-08-05T03:18:29.903Z,1004.97
2022-08-05T03:19:34.526Z,1005.02
2022-08-05T03:20:25.100Z,1005.12
2022-08-05T03:21:23.879Z,1005.07
2022-08-05T03:22:32.414Z,1005.15
2022-08-05T03:23:24.871Z,1005.15
2022-08-05T03:24:29.334Z,1005.24
2022-08-05T03:26:03.765Z,1005.27
2022-08-05T03:26:31.682Z,1005.30
2022-08-05T03:27:25.101Z,1005.37
2022-08-05T03:28:24.807Z,1005.39
2022-08-05T03:29:23.829Z,1005.38
2022-08-05T03:30:33.523Z,1005.37
2022-08-05T03:31:56.162Z,1005.36
2022-08-05T03:32:30.955Z,1005.37
2022-08-05T03:33:24.768Z,1005.36
2022-08-05T03:34:24.744Z,1005.34
2022-08-05T03:35:23.737Z,1005.36
2022-08-05T03:36:30.193Z,1005.33
2022-08-05T03:37:24.951Z,1005.32
2022-08-05T03:38:32.887Z,1005.36
2022-08-05T03:39:27.264Z,1005.36
2022-08-05T03:40:31.226Z,1005.38
2022-08-05T03:41:24.693Z,1005.37
2022-08-05T03:42:23.629Z,1005.42
2022-08-05T03:44:08.881Z,1005.38
2022-08-05T03:44:24.642Z,1005.35
2022-08-05T03:45:23.837Z,1005.37
2022-08-05T03:46:23.795Z,1005.35
2022-08-05T03:47:25.082Z,1005.43
2022-08-05T03:48:24.569Z,1005.45
2022-08-05T03:49:24.223Z,1005.50
2022-08-05T03:50:24.551Z,1005.53
2022-08-05T03:52:50.201Z,1005.59
2022-08-05T03:52:50.418Z,1005.60
2022-08-05T03:55:50.505Z,1005.62
2022-08-05T03:55:53.093Z,1005.59
2022-08-05T03:56:04.164Z,1005.56
2022-08-05T03:56:30.677Z,1005.53
2022-08-05T03:57:35.024Z,1005.54
2022-08-05T03:58:28.935Z,1005.55
2022-08-05T03:59:24.519Z,1005.56
2022-08-05T04:00:23.454Z,1005.58
2022-08-05T04:01:23.487Z,1005.63
2022-08-05T04:02:38.646Z,1005.61
2022-08-05T04:03:28.527Z,1005.66
2022-08-05T04:04:23.414Z,1005.66
2022-08-05T04:05:23.440Z,1005.68
2022-08-05T04:06:23.386Z,1005.67
2022-08-05T04:07:24.904Z,1005.66
2022-08-05T04:08:35.026Z,1005.66
2022-08-05T04:09:26.431Z,1005.68
2022-08-05T04:10:23.381Z,1005.64
2022-08-05T04:11:23.341Z,1005.61
2022-08-05T04:12:23.651Z,1005.56
2022-08-05T04:13:23.313Z,1005.56
2022-08-05T04:14:29.978Z,1005.53
2022-08-05T04:15:24.645Z,1005.52
2022-08-05T04:16:25.005Z,1005.50
2022-08-05T04:17:23.544Z,1005.54
2022-08-05T04:18:25.569Z,1005.52
2022-08-05T04:19:23.354Z,1005.51
2022-08-05T04:20:23.412Z,1005.54
2022-08-05T04:22:09.257Z,1005.49
2022-08-05T04:22:24.221Z,1005.45
2022-08-05T04:24:05.416Z,1005.44
2022-08-05T04:24:24.193Z,1005.43
2022-08-05T04:25:38.439Z,1005.42
2022-08-05T04:26:24.185Z,1005.40
2022-08-05T04:27:33.129Z,1005.43
2022-08-05T04:28:31.064Z,1005.48
2022-08-05T04:29:24.133Z,1005.56
2022-08-05T04:30:23.128Z,1005.57
2022-08-05T04:31:23.094Z,1005.57
2022-08-05T04:32:31.152Z,1005.55
2022-08-05T04:34:19.341Z,1005.57
2022-08-05T04:34:32.455Z,1005.60
2022-08-05T04:35:24.077Z,1005.59
2022-08-05T04:36:46.471Z,1005.57
2022-08-05T04:38:02.127Z,1005.57
2022-08-05T04:38:39.417Z,1005.57
2022-08-05T04:39:24.228Z,1005.56
2022-08-05T04:40:23.038Z,1005.55
2022-08-05T04:41:36.610Z,1005.49
2022-08-05T04:42:25.409Z,1005.44
2022-08-05T04:43:22.986Z,1005.37
2022-08-05T04:44:30.143Z,1005.35
2022-08-05T04:45:48.625Z,1005.37
2022-08-05T04:46:28.034Z,1005.34
2022-08-05T04:47:23.143Z,1005.32
2022-08-05T04:48:27.470Z,1005.32
2022-08-05T04:49:24.702Z,1005.36
2022-08-05T04:50:34.320Z,1005.36
2022-08-05T04:51:23.883Z,1005.46
2022-08-05T04:52:22.906Z,1005.53
2022-08-05T04:53:22.863Z,1005.68
2022-08-05T04:54:22.865Z,1005.73
2022-08-05T04:55:34.020Z,1005.81
2022-08-05T04:56:34.261Z,1005.84
2022-08-05T04:57:24.246Z,1005.86
2022-08-05T04:58:23.816Z,1005.85
2022-08-05T04:59:33.541Z,1005.74
2022-08-05T05:00:23.920Z,1005.73
2022-08-05T05:02:06.022Z,1005.72
2022-08-05T05:02:41.081Z,1005.68
2022-08-05T05:03:23.839Z,1005.64
2022-08-05T05:04:22.850Z,1005.65
2022-08-05T05:05:28.565Z,1005.67
2022-08-05T05:06:39.594Z,1005.66
2022-08-05T05:07:29.248Z,1005.71
2022-08-05T05:08:30.242Z,1005.67
2022-08-05T05:09:23.698Z,1005.74
2022-08-05T05:10:22.687Z,1005.72
2022-08-05T05:11:22.678Z,1005.73
2022-08-05T05:12:23.666Z,1005.73
2022-08-05T05:13:22.680Z,1005.68
2022-08-05T05:14:28.145Z,1005.68
2022-08-05T05:15:56.251Z,1005.69
2022-08-05T05:16:23.631Z,1005.68
2022-08-05T05:17:55.409Z,1005.72
2022-08-05T05:18:28.267Z,1005.73
2022-08-05T05:19:27.333Z,1005.72
2022-08-05T05:20:23.859Z,1005.64
2022-08-05T05:21:23.566Z,1005.53
2022-08-05T05:22:26.091Z,1005.47
2022-08-05T05:23:22.551Z,1005.38
2022-08-05T05:24:22.547Z,1005.32
2022-08-05T05:25:40.421Z,1005.20
2022-08-05T05:26:28.370Z,1005.12
2022-08-05T05:27:23.701Z,1005.07
2022-08-05T05:28:22.480Z,1005.01
2022-08-05T05:29:22.494Z,1004.97
2022-08-05T05:30:29.093Z,1004.97
2022-08-05T05:31:23.468Z,1004.98
2022-08-05T05:32:22.466Z,1005.12
2022-08-05T05:33:23.358Z,1005.21
2022-08-05T05:34:27.048Z,1005.25
2022-08-05T05:35:22.451Z,1005.29
2022-08-05T05:36:22.389Z,1005.31
2022-08-05T05:37:22.643Z,1005.29
2022-08-05T05:38:27.582Z,1005.27
2022-08-05T05:39:22.432Z,1005.16
2022-08-05T05:40:22.380Z,1005.12
2022-08-05T05:41:22.339Z,1005.03
2022-08-05T05:42:22.342Z,1005.04
2022-08-05T05:43:54.645Z,1004.99
2022-08-05T05:44:35.545Z,1004.97
2022-08-05T05:45:23.290Z,1004.94
2022-08-05T05:46:22.306Z,1004.93
2022-08-05T05:47:22.408Z,1004.93
2022-08-05T05:48:27.521Z,1004.90
2022-08-05T05:49:22.965Z,1004.91
2022-08-05T05:50:22.290Z,1004.88
2022-08-05T05:51:22.257Z,1004.85
2022-08-05T05:52:28.392Z,1004.77
2022-08-05T05:53:23.382Z,1004.71
2022-08-05T05:54:22.224Z,1004.75
2022-08-05T05:55:23.194Z,1004.72
2022-08-05T05:56:26.108Z,1004.76
2022-08-05T05:57:23.236Z,1004.87
2022-08-05T05:58:22.159Z,1005.01
2022-08-05T05:59:23.164Z,1005.23
2022-08-05T06:00:27.746Z,1005.40
2022-08-05T06:01:23.348Z,1005.54
2022-08-05T06:02:32.793Z,1005.61
2022-08-05T06:03:40.064Z,1005.69
2022-08-05T06:04:23.194Z,1005.77
2022-08-05T06:05:22.120Z,1005.85
2022-08-05T06:06:22.438Z,1005.92
2022-08-05T06:07:22.513Z,1005.93
2022-08-05T06:08:32.240Z,1006.01
2022-08-05T06:09:26.490Z,1006.09
2022-08-05T06:10:23.778Z,1006.12
2022-08-05T06:11:22.034Z,1006.18
2022-08-05T06:12:21.999Z,1006.18
2022-08-05T06:13:23.643Z,1006.22
2022-08-05T06:14:21.987Z,1006.28
2022-08-05T06:15:24.162Z,1006.27
2022-08-05T06:16:28.358Z,1006.29
2022-08-05T06:17:24.323Z,1006.32
2022-08-05T06:18:21.966Z,1006.32
2022-08-05T06:19:33.947Z,1006.35
2022-08-05T06:20:22.938Z,1006.40
2022-08-05T06:21:21.919Z,1006.41
2022-08-05T06:22:21.920Z,1006.41
2022-08-05T06:23:21.886Z,1006.46
2022-08-05T06:24:25.666Z,1006.44
2022-08-05T06:25:25.028Z,1006.44
2022-08-05T06:26:24.986Z,1006.42
2022-08-05T06:28:12.820Z,1006.43
2022-08-05T06:28:23.215Z,1006.40
2022-08-05T06:29:25.411Z,1006.36
2022-08-05T06:30:22.802Z,1006.31
2022-08-05T06:31:22.603Z,1006.28
2022-08-05T06:32:26.025Z,1006.22
2022-08-05T06:33:33.255Z,1006.15
2022-08-05T06:34:22.782Z,1006.12
2022-08-05T06:36:06.907Z,1006.14
2022-08-05T06:36:25.980Z,1006.12
2022-08-05T06:37:57.746Z,1006.13
2022-08-05T06:38:35.816Z,1006.08
2022-08-05T06:39:24.514Z,1005.98
2022-08-05T06:40:21.702Z,1005.97
2022-08-05T06:41:22.700Z,1005.94
2022-08-05T06:42:21.677Z,1005.96
2022-08-05T06:43:58.457Z,1005.89
2022-08-05T06:44:22.688Z,1005.85
2022-08-05T06:45:44.753Z,1005.86
2022-08-05T06:46:22.671Z,1005.94
2022-08-05T06:48:11.590Z,1005.90
2022-08-05T06:48:54.673Z,1005.86
2022-08-05T06:50:01.128Z,1005.86
2022-08-05T06:50:22.725Z,1005.88
2022-08-05T06:51:26.719Z,1005.93
2022-08-05T06:52:36.655Z,1005.89
2022-08-05T06:53:27.844Z,1005.97
2022-08-05T06:54:25.815Z,1005.96
2022-08-05T06:55:21.526Z,1005.93
2022-08-05T06:56:26.072Z,1005.87
2022-08-05T06:57:57.303Z,1005.86
2022-08-05T06:58:34.922Z,1005.81
2022-08-05T06:59:22.530Z,1005.80
2022-08-05T07:00:24.551Z,1005.83
2022-08-05T07:01:21.589Z,1005.79
2022-08-05T07:02:22.719Z,1005.77
2022-08-05T07:03:21.487Z,1005.80
2022-08-05T07:04:22.460Z,1005.75
2022-08-05T07:05:27.629Z,1005.74
2022-08-05T07:06:22.447Z,1005.72
2022-08-05T07:07:24.028Z,1005.70
2022-08-05T07:08:22.404Z,1005.66
2022-08-05T07:09:21.392Z,1005.64
2022-08-05T07:10:21.472Z,1005.69
2022-08-05T07:11:25.567Z,1005.67
2022-08-05T07:12:21.347Z,1005.66
2022-08-05T07:13:46.388Z,1005.61
2022-08-05T07:14:28.821Z,1005.66
2022-08-05T07:15:34.628Z,1005.59
2022-08-05T07:18:01.614Z,1005.62
2022-08-05T07:18:01.903Z,1005.69
2022-08-05T07:18:29.094Z,1005.72
2022-08-05T07:19:57.991Z,1005.78
2022-08-05T07:20:39.101Z,1005.80
2022-08-05T07:21:25.975Z,1005.89
2022-08-05T07:22:21.247Z,1005.92
2022-08-05T07:23:26.255Z,1005.99
2022-08-05T07:24:22.237Z,1005.99
2022-08-05T07:25:23.554Z,1005.95
2022-08-05T07:26:24.957Z,1005.89
2022-08-05T07:27:21.624Z,1005.85
2022-08-05T07:28:21.173Z,1005.83
2022-08-05T07:30:22.236Z,1005.83
2022-08-05T07:30:29.991Z,1005.84
2022-08-05T07:31:41.024Z,1005.87
2022-08-05T07:32:26.089Z,1005.88
2022-08-05T07:33:21.151Z,1005.88
2022-08-05T07:34:27.440Z,1005.91
2022-08-05T07:36:04.400Z,1005.89
2022-08-05T07:36:22.107Z,1005.94
2022-08-05T07:37:21.068Z,1005.96
2022-08-05T07:38:33.775Z,1005.92
2022-08-05T07:39:50.403Z,1005.98
2022-08-05T07:40:32.151Z,1005.97
2022-08-05T07:42:08.331Z,1005.99
2022-08-05T07:42:33.819Z,1005.98
2022-08-05T07:43:22.035Z,1005.99
2022-08-05T07:44:21.017Z,1006.06
2022-08-05T07:45:56.451Z,1006.06
2022-08-05T07:46:25.256Z,1006.07
2022-08-05T07:47:21.053Z,1006.09
2022-08-05T07:49:02.363Z,1006.12
2022-08-05T07:49:21.981Z,1006.11
2022-08-05T07:50:28.889Z,1006.04
2022-08-05T07:51:23.742Z,1006.03
2022-08-05T07:52:23.847Z,1006.02
2022-08-05T07:53:20.921Z,1005.97
2022-08-05T07:54:20.964Z,1005.96
2022-08-05T07:55:44.510Z,1006.00
2022-08-05T07:57:00.543Z,1006.00
2022-08-05T07:57:57.365Z,1006.08
2022-08-05T07:58:57.503Z,1006.13
2022-08-05T07:59:31.066Z,1006.15
2022-08-05T08:00:21.862Z,1006.22
2022-08-05T08:01:22.206Z,1006.24
2022-08-05T08:02:20.842Z,1006.24
2022-08-05T08:03:21.820Z,1006.26
2022-08-05T08:04:34.309Z,1006.27
2022-08-05T08:05:21.802Z,1006.28
2022-08-05T08:06:20.785Z,1006.30
2022-08-05T08:07:22.666Z,1006.29
2022-08-05T08:08:20.908Z,1006.24
2022-08-05T08:09:20.780Z,1006.25
2022-08-05T08:10:20.909Z,1006.27
2022-08-05T08:11:27.723Z,1006.29
2022-08-05T08:12:32.003Z,1006.32
2022-08-05T08:13:28.816Z,1006.35
2022-08-05T08:14:21.740Z,1006.36
2022-08-05T08:15:37.146Z,1006.33
2022-08-05T08:16:35.082Z,1006.34
2022-08-05T08:17:21.957Z,1006.31
2022-08-05T08:18:21.253Z,1006.33
2022-08-05T08:20:22.726Z,1006.37
2022-08-05T08:20:43.222Z,1006.37
2022-08-05T08:21:21.600Z,1006.37
2022-08-05T08:22:20.587Z,1006.34
2022-08-05T08:24:02.054Z,1006.33
2022-08-05T08:24:21.578Z,1006.29
2022-08-05T08:25:26.762Z,1006.28
2022-08-05T08:26:26.579Z,1006.26
2022-08-05T08:27:22.049Z,1006.31
2022-08-05T08:28:36.697Z,1006.33
2022-08-05T08:30:03.621Z,1006.32
2022-08-05T08:30:33.983Z,1006.32
2022-08-05T08:31:21.500Z,1006.30
2022-08-05T08:32:21.562Z,1006.37
2022-08-05T08:33:21.492Z,1006.35
2022-08-05T08:34:30.867Z,1006.36
2022-08-05T08:35:21.479Z,1006.35
2022-08-05T08:36:38.708Z,1006.36
2022-08-05T08:37:27.730Z,1006.34
2022-08-05T08:38:35.425Z,1006.37
2022-08-05T08:39:21.542Z,1006.35
2022-08-05T08:40:20.439Z,1006.26
2022-08-05T08:41:20.394Z,1006.30
2022-08-05T08:42:38.345Z,1006.22
2022-08-05T08:45:17.052Z,1006.26
2022-08-05T08:45:20.788Z,1006.24
2022-08-05T08:45:27.083Z,1006.26
2022-08-05T08:46:21.344Z,1006.19
2022-08-05T08:47:48.117Z,1006.23
2022-08-05T08:48:42.895Z,1006.27
2022-08-05T08:50:23.287Z,1006.27
2022-08-05T08:50:33.017Z,1006.25
2022-08-05T08:52:02.195Z,1006.26
2022-08-05T08:52:21.351Z,1006.29
2022-08-05T08:53:20.318Z,1006.30
2022-08-05T08:54:22.037Z,1006.28
2022-08-05T08:56:02.136Z,1006.28
2022-08-05T08:56:22.198Z,1006.25
2022-08-05T08:57:42.133Z,1006.26
2022-08-05T08:58:37.223Z,1006.29
2022-08-05T08:59:21.292Z,1006.26
2022-08-05T09:00:20.337Z,1006.21
2022-08-05T09:01:20.340Z,1006.23
2022-08-05T09:02:20.152Z,1006.24
2022-08-05T09:03:20.183Z,1006.24
2022-08-05T09:04:20.279Z,1006.27
2022-08-05T09:05:38.707Z,1006.34
2022-08-05T09:06:24.185Z,1006.38
2022-08-05T09:07:29.184Z,1006.35
2022-08-05T09:08:21.122Z,1006.45
2022-08-05T09:09:21.108Z,1006.51
2022-08-05T09:10:20.121Z,1006.52
2022-08-05T09:11:51.911Z,1006.62
2022-08-05T09:12:27.206Z,1006.63
2022-08-05T09:13:21.042Z,1006.70
2022-08-05T09:14:56.315Z,1006.81
2022-08-05T09:15:21.140Z,1006.88
2022-08-05T09:16:20.225Z,1006.91
2022-08-05T09:17:42.410Z,1006.92
2022-08-05T09:18:21.285Z,1006.95
2022-08-05T09:19:20.288Z,1006.95
2022-08-05T09:20:37.502Z,1006.98
2022-08-05T09:22:21.852Z,1007.02
2022-08-05T09:22:31.969Z,1007.16
2022-08-05T09:23:21.919Z,1007.19
2022-08-05T09:24:19.926Z,1007.25
2022-08-05T09:25:24.441Z,1007.35
2022-08-05T09:26:22.364Z,1007.36
2022-08-05T09:28:06.028Z,1007.49
2022-08-05T09:28:21.327Z,1007.42
2022-08-05T09:29:19.896Z,1007.39
2022-08-05T09:30:23.531Z,1007.38
2022-08-05T09:31:43.406Z,1007.27
2022-08-05T09:32:40.812Z,1007.29
2022-08-05T09:33:20.939Z,1007.31
2022-08-05T09:34:19.837Z,1007.30
2022-08-05T09:35:27.180Z,1007.36
2022-08-05T09:36:20.787Z,1007.39
2022-08-05T09:38:17.046Z,1007.47
2022-08-05T09:38:29.499Z,1007.51
2022-08-05T09:39:22.169Z,1007.53
2022-08-05T09:40:19.883Z,1007.44
2022-08-05T09:41:19.831Z,1007.43
2022-08-05T09:42:23.171Z,1007.41
2022-08-05T09:43:19.869Z,1007.42
2022-08-05T09:44:19.965Z,1007.45
2022-08-05T09:46:07.276Z,1007.40
2022-08-05T09:46:20.824Z,1007.40
2022-08-05T09:47:20.855Z,1007.40
2022-08-05T09:48:19.672Z,1007.39
2022-08-05T09:49:19.999Z,1007.39
2022-08-05T09:50:37.666Z,1007.34
2022-08-05T09:51:20.804Z,1007.37
2022-08-05T09:52:19.709Z,1007.37
2022-08-05T09:53:25.855Z,1007.44
2022-08-05T09:54:29.032Z,1007.44
2022-08-05T09:55:56.261Z,1007.48
2022-08-05T09:56:20.579Z,1007.51
2022-08-05T09:57:20.689Z,1007.54
2022-08-05T09:58:19.806Z,1007.50
2022-08-05T09:59:19.796Z,1007.57
2022-08-05T10:00:19.949Z,1007.57
2022-08-05T10:01:32.140Z,1007.58
2022-08-05T10:02:20.634Z,1007.56
2022-08-05T10:03:20.320Z,1007.59
2022-08-05T10:04:19.626Z,1007.63
2022-08-05T10:05:20.509Z,1007.56
2022-08-05T10:06:19.559Z,1007.56
2022-08-05T10:07:50.392Z,1007.57
2022-08-05T10:08:36.963Z,1007.61
2022-08-05T10:09:25.163Z,1007.62
2022-08-05T10:10:28.342Z,1007.58
2022-08-05T10:11:20.521Z,1007.59
2022-08-05T10:12:33.309Z,1007.60
2022-08-05T10:13:20.409Z,1007.60
2022-08-05T10:14:19.527Z,1007.56
2022-08-05T10:15:20.165Z,1007.55
2022-08-05T10:16:19.378Z,1007.55
2022-08-05T10:17:37.592Z,1007.58
2022-08-05T10:18:20.474Z,1007.55
2022-08-05T10:19:23.553Z,1007.52
2022-08-05T10:20:20.336Z,1007.54
2022-08-05T10:21:19.413Z,1007.58
2022-08-05T10:22:29.513Z,1007.59
2022-08-05T10:23:34.400Z,1007.57
2022-08-05T10:24:22.252Z,1007.59
2022-08-05T10:25:19.522Z,1007.59
2022-08-05T10:26:19.422Z,1007.61
2022-08-05T10:27:20.429Z,1007.61
2022-08-05T10:28:29.595Z,1007.52
2022-08-05T10:30:05.794Z,1007.49
2022-08-05T10:31:20.300Z,1007.53
2022-08-05T10:32:53.122Z,1007.50
2022-08-05T10:32:55.377Z,1007.46
2022-08-05T10:33:20.180Z,1007.53
2022-08-05T10:34:19.275Z,1007.56
2022-08-05T10:35:20.440Z,1007.58
2022-08-05T10:36:23.456Z,1007.58
2022-08-05T10:37:19.252Z,1007.60
2022-08-05T10:38:19.303Z,1007.59
2022-08-05T10:39:25.045Z,1007.63
2022-08-05T10:40:20.555Z,1007.64
2022-08-05T10:41:23.513Z,1007.65
2022-08-05T10:42:22.717Z,1007.67
2022-08-05T10:43:20.431Z,1007.68
2022-08-05T10:44:19.099Z,1007.69
2022-08-05T10:45:23.749Z,1007.71
2022-08-05T10:46:23.916Z,1007.74
2022-08-05T10:47:26.258Z,1007.82
2022-08-05T10:48:31.422Z,1007.85
2022-08-05T10:49:26.994Z,1007.93
2022-08-05T10:50:35.400Z,1007.96
2022-08-05T10:51:22.314Z,1007.88
2022-08-05T10:52:18.974Z,1007.92
2022-08-05T10:53:19.323Z,1007.94
2022-08-05T10:54:28.431Z,1008.05
2022-08-05T10:55:20.070Z,1008.15
2022-08-05T10:56:21.202Z,1008.21
2022-08-05T10:57:20.491Z,1008.27
2022-08-05T10:58:18.915Z,1008.31
2022-08-05T11:00:04.398Z,1008.28
2022-08-05T11:00:22.687Z,1008.20
2022-08-05T11:01:28.417Z,1008.21
2022-08-05T11:02:34.679Z,1008.18
2022-08-05T11:03:25.563Z,1008.17
2022-08-05T11:04:21.344Z,1008.25
2022-08-05T11:05:19.049Z,1008.27
2022-08-05T11:06:18.818Z,1008.26
2022-08-05T11:07:18.825Z,1008.18
2022-08-05T11:08:34.283Z,1008.21
2022-08-05T11:09:24.193Z,1008.24
2022-08-05T11:10:20.335Z,1008.22
2022-08-05T11:11:18.785Z,1008.29
2022-08-05T11:12:18.795Z,1008.29
2022-08-05T11:13:18.756Z,1008.37
2022-08-05T11:14:18.813Z,1008.38
2022-08-05T11:15:20.161Z,1008.40
2022-08-05T11:16:18.821Z,1008.41
2022-08-05T11:17:57.778Z,1008.42
2022-08-05T11:18:19.710Z,1008.39
2022-08-05T11:20:16.683Z,1008.41
2022-08-05T11:20:19.784Z,1008.42
2022-08-05T11:21:18.667Z,1008.43
2022-08-05T11:22:18.819Z,1008.53
2022-08-05T11:23:18.655Z,1008.47
2022-08-05T11:24:30.576Z,1008.54
2022-08-05T11:26:05.499Z,1008.53
2022-08-05T11:26:28.503Z,1008.54
2022-08-05T11:27:19.747Z,1008.61
2022-08-05T11:28:19.021Z,1008.62
2022-08-05T11:29:18.574Z,1008.61
2022-08-05T11:30:18.600Z,1008.62
2022-08-05T11:31:54.242Z,1008.57
2022-08-05T11:32:19.548Z,1008.57
2022-08-05T11:33:21.045Z,1008.51
2022-08-05T11:34:22.727Z,1008.45
2022-08-05T11:35:19.580Z,1008.47
2022-08-05T11:36:34.471Z,1008.50
2022-08-05T11:38:29.748Z,1008.57
2022-08-05T11:38:37.003Z,1008.63
2022-08-05T11:39:19.589Z,1008.63
2022-08-05T11:40:18.515Z,1008.70
2022-08-05T11:41:54.495Z,1008.69
2022-08-05T11:42:19.603Z,1008.68
2022-08-05T11:43:18.586Z,1008.68
2022-08-05T11:44:40.431Z,1008.66
2022-08-05T11:46:15.593Z,1008.65
2022-08-05T11:46:32.178Z,1008.57
2022-08-05T11:47:21.953Z,1008.65
2022-08-05T11:48:18.552Z,1008.73
2022-08-05T11:49:18.397Z,1008.72
2022-08-05T11:50:18.407Z,1008.73
2022-08-05T11:51:43.545Z,1008.63
2022-08-05T11:52:19.650Z,1008.70
2022-08-05T11:53:18.432Z,1008.67
2022-08-05T11:54:18.443Z,1008.74
2022-08-05T11:55:18.343Z,1008.73
2022-08-05T11:56:18.662Z,1008.76
2022-08-05T11:57:25.501Z,1008.72
2022-08-05T11:58:19.551Z,1008.73
2022-08-05T11:59:21.361Z,1008.73
2022-08-05T12:00:18.485Z,1008.73
2022-08-05T12:01:19.116Z,1008.76
2022-08-05T12:02:24.207Z,1008.81
2022-08-05T12:03:28.561Z,1008.87
2022-08-05T12:04:21.216Z,1008.91
2022-08-05T12:05:18.675Z,1008.95
2022-08-05T12:06:18.613Z,1008.97
2022-08-05T12:07:18.182Z,1008.92
2022-08-05T12:08:19.299Z,1008.95
2022-08-05T12:09:19.930Z,1008.94
2022-08-05T12:10:18.134Z,1008.93